sensor_id;sensor_type;location;lat;lon;timestamp;P1;durP1;ratioP1;P2;durP2;ratioP2
46210;SDS011;52144;48.040;-1.594;2023-06-26T00:00:36;10.05;;;1.33;;
46210;SDS011;52144;48.040;-1.594;2023-06-26T00:03:04;3.47;;;1.67;;
46210;SDS011;52144;48.040;-1.594;2023-06-26T00:05:32;3.17;;;1.30;;
46210;SDS011;52144;48.040;-1.594;2023-06-26T00:08:00;2.92;;;0.80;;
46210;SDS011;52144;48.040;-1.594;2023-06-26T00:10:28;6.63;;;1.42;;
46210;SDS011;52144;48.040;-1.594;2023-06-26T00:12:56;5.63;;;1.23;;
46210;SDS011;52144;48.040;-1.594;2023-06-26T00:15:25;3.10;;;1.00;;
46210;SDS011;52144;48.040;-1.594;2023-06-26T00:17:53;3.08;;;1.10;;
46210;SDS011;52144;48.040;-1.594;2023-06-26T00:20:21;6.35;;;1.20;;
46210;SDS011;52144;48.040;-1.594;2023-06-26T00:22:51;1.55;;;0.77;;
46210;SDS011;52144;48.040;-1.594;2023-06-26T00:25:20;3.28;;;1.35;;
46210;SDS011;52144;48.040;-1.594;2023-06-26T00:27:47;5.72;;;1.25;;
46210;SDS011;52144;48.040;-1.594;2023-06-26T00:30:15;2.72;;;0.90;;
46210;SDS011;52144;48.040;-1.594;2023-06-26T00:32:44;6.53;;;1.23;;
46210;SDS011;52144;48.040;-1.594;2023-06-26T00:35:12;4.10;;;1.10;;
46210;SDS011;52144;48.040;-1.594;2023-06-26T00:37:40;5.70;;;1.45;;
46210;SDS011;52144;48.040;-1.594;2023-06-26T00:40:08;3.50;;;1.25;;
46210;SDS011;52144;48.040;-1.594;2023-06-26T00:42:37;2.22;;;1.25;;
46210;SDS011;52144;48.040;-1.594;2023-06-26T00:45:05;2.33;;;1.13;;
46210;SDS011;52144;48.040;-1.594;2023-06-26T00:47:33;3.13;;;1.10;;
46210;SDS011;52144;48.040;-1.594;2023-06-26T00:50:03;3.10;;;1.50;;
46210;SDS011;52144;48.040;-1.594;2023-06-26T00:52:32;2.53;;;1.10;;
46210;SDS011;52144;48.040;-1.594;2023-06-26T00:54:59;10.35;;;1.73;;
46210;SDS011;52144;48.040;-1.594;2023-06-26T00:57:27;3.40;;;1.33;;
46210;SDS011;52144;48.040;-1.594;2023-06-26T00:59:55;5.93;;;1.20;;
46210;SDS011;52144;48.040;-1.594;2023-06-26T01:02:23;0.73;;;0.63;;
46210;SDS011;52144;48.040;-1.594;2023-06-26T01:04:53;3.97;;;1.10;;
46210;SDS011;52144;48.040;-1.594;2023-06-26T01:07:22;4.90;;;0.93;;
46210;SDS011;52144;48.040;-1.594;2023-06-26T01:09:51;5.15;;;1.80;;
46210;SDS011;52144;48.040;-1.594;2023-06-26T01:12:19;5.43;;;1.77;;
46210;SDS011;52144;48.040;-1.594;2023-06-26T01:14:47;6.05;;;1.50;;
46210;SDS011;52144;48.040;-1.594;2023-06-26T01:17:15;2.63;;;1.10;;
46210;SDS011;52144;48.040;-1.594;2023-06-26T01:19:42;5.63;;;1.15;;
46210;SDS011;52144;48.040;-1.594;2023-06-26T01:22:14;2.17;;;0.93;;
46210;SDS011;52144;48.040;-1.594;2023-06-26T01:24:52;2.42;;;0.82;;
46210;SDS011;52144;48.040;-1.594;2023-06-26T01:27:38;6.15;;;1.45;;
46210;SDS011;52144;48.040;-1.594;2023-06-26T01:30:07;5.90;;;1.65;;
46210;SDS011;52144;48.040;-1.594;2023-06-26T01:32:35;2.72;;;1.00;;
46210;SDS011;52144;48.040;-1.594;2023-06-26T01:35:04;9.80;;;1.88;;
46210;SDS011;52144;48.040;-1.594;2023-06-26T01:37:34;10.00;;;1.88;;
46210;SDS011;52144;48.040;-1.594;2023-06-26T01:40:02;3.05;;;1.67;;
46210;SDS011;52144;48.040;-1.594;2023-06-26T01:42:31;2.60;;;1.20;;
46210;SDS011;52144;48.040;-1.594;2023-06-26T01:45:00;7.03;;;1.48;;
46210;SDS011;52144;48.040;-1.594;2023-06-26T01:47:33;3.40;;;1.38;;
46210;SDS011;52144;48.040;-1.594;2023-06-26T01:50:06;4.75;;;1.65;;
46210;SDS011;52144;48.040;-1.594;2023-06-26T01:52:40;2.25;;;1.38;;
46210;SDS011;52144;48.040;-1.594;2023-06-26T01:55:12;8.32;;;1.08;;
46210;SDS011;52144;48.040;-1.594;2023-06-26T01:57:45;2.05;;;0.98;;
46210;SDS011;52144;48.040;-1.594;2023-06-26T02:00:16;2.92;;;1.13;;
46210;SDS011;52144;48.040;-1.594;2023-06-26T02:02:46;2.63;;;1.52;;
46210;SDS011;52144;48.040;-1.594;2023-06-26T02:05:14;2.25;;;1.33;;
46210;SDS011;52144;48.040;-1.594;2023-06-26T02:07:42;1.23;;;1.02;;
46210;SDS011;52144;48.040;-1.594;2023-06-26T02:10:11;3.38;;;0.70;;
46210;SDS011;52144;48.040;-1.594;2023-06-26T02:12:39;6.05;;;1.98;;
46210;SDS011;52144;48.040;-1.594;2023-06-26T02:15:07;3.83;;;0.95;;
46210;SDS011;52144;48.040;-1.594;2023-06-26T02:17:37;6.07;;;1.42;;
46210;SDS011;52144;48.040;-1.594;2023-06-26T02:20:05;5.68;;;1.30;;
46210;SDS011;52144;48.040;-1.594;2023-06-26T02:22:35;7.72;;;1.83;;
46210;SDS011;52144;48.040;-1.594;2023-06-26T02:25:03;11.45;;;1.83;;
46210;SDS011;52144;48.040;-1.594;2023-06-26T02:27:32;5.75;;;1.20;;
46210;SDS011;52144;48.040;-1.594;2023-06-26T02:29:59;2.33;;;1.33;;
46210;SDS011;52144;48.040;-1.594;2023-06-26T02:32:27;2.78;;;1.23;;
46210;SDS011;52144;48.040;-1.594;2023-06-26T02:34:56;2.63;;;1.10;;
46210;SDS011;52144;48.040;-1.594;2023-06-26T02:37:24;3.25;;;1.95;;
46210;SDS011;52144;48.040;-1.594;2023-06-26T02:39:52;2.15;;;1.42;;
46210;SDS011;52144;48.040;-1.594;2023-06-26T02:42:20;7.90;;;1.67;;
46210;SDS011;52144;48.040;-1.594;2023-06-26T02:44:48;2.90;;;1.50;;
46210;SDS011;52144;48.040;-1.594;2023-06-26T02:47:16;6.57;;;2.53;;
46210;SDS011;52144;48.040;-1.594;2023-06-26T02:49:43;4.97;;;1.75;;
46210;SDS011;52144;48.040;-1.594;2023-06-26T02:52:13;3.63;;;1.65;;
46210;SDS011;52144;48.040;-1.594;2023-06-26T02:54:40;4.90;;;1.98;;
46210;SDS011;52144;48.040;-1.594;2023-06-26T02:57:08;6.55;;;1.88;;
46210;SDS011;52144;48.040;-1.594;2023-06-26T02:59:36;2.17;;;1.83;;
46210;SDS011;52144;48.040;-1.594;2023-06-26T03:02:05;5.00;;;1.73;;
46210;SDS011;52144;48.040;-1.594;2023-06-26T03:04:33;8.02;;;1.88;;
46210;SDS011;52144;48.040;-1.594;2023-06-26T03:07:03;5.03;;;1.55;;
46210;SDS011;52144;48.040;-1.594;2023-06-26T03:09:32;7.65;;;1.95;;
46210;SDS011;52144;48.040;-1.594;2023-06-26T03:12:00;6.97;;;2.42;;
46210;SDS011;52144;48.040;-1.594;2023-06-26T03:14:28;3.95;;;2.00;;
46210;SDS011;52144;48.040;-1.594;2023-06-26T03:16:56;3.85;;;1.52;;
46210;SDS011;52144;48.040;-1.594;2023-06-26T03:19:25;3.17;;;1.73;;
46210;SDS011;52144;48.040;-1.594;2023-06-26T03:21:53;5.45;;;1.30;;
46210;SDS011;52144;48.040;-1.594;2023-06-26T03:24:21;8.25;;;1.77;;
46210;SDS011;52144;48.040;-1.594;2023-06-26T03:26:50;5.32;;;1.50;;
46210;SDS011;52144;48.040;-1.594;2023-06-26T03:29:18;7.47;;;1.40;;
46210;SDS011;52144;48.040;-1.594;2023-06-26T03:31:46;2.15;;;1.70;;
46210;SDS011;52144;48.040;-1.594;2023-06-26T03:34:14;2.72;;;1.40;;
46210;SDS011;52144;48.040;-1.594;2023-06-26T03:36:42;5.15;;;1.48;;
46210;SDS011;52144;48.040;-1.594;2023-06-26T03:39:09;3.75;;;1.27;;
46210;SDS011;52144;48.040;-1.594;2023-06-26T03:41:37;1.95;;;1.33;;
46210;SDS011;52144;48.040;-1.594;2023-06-26T03:44:06;2.45;;;1.00;;
46210;SDS011;52144;48.040;-1.594;2023-06-26T03:46:34;5.43;;;1.38;;
46210;SDS011;52144;48.040;-1.594;2023-06-26T03:49:02;11.00;;;1.67;;
46210;SDS011;52144;48.040;-1.594;2023-06-26T03:51:30;3.90;;;1.30;;
46210;SDS011;52144;48.040;-1.594;2023-06-26T03:53:57;2.60;;;1.10;;
46210;SDS011;52144;48.040;-1.594;2023-06-26T03:56:25;5.88;;;1.45;;
46210;SDS011;52144;48.040;-1.594;2023-06-26T03:58:53;2.10;;;1.60;;
46210;SDS011;52144;48.040;-1.594;2023-06-26T04:01:22;2.88;;;1.30;;
46210;SDS011;52144;48.040;-1.594;2023-06-26T04:03:50;3.55;;;1.85;;
46210;SDS011;52144;48.040;-1.594;2023-06-26T04:06:18;7.00;;;1.73;;
46210;SDS011;52144;48.040;-1.594;2023-06-26T04:08:46;6.32;;;1.88;;
46210;SDS011;52144;48.040;-1.594;2023-06-26T04:11:14;3.40;;;1.63;;
46210;SDS011;52144;48.040;-1.594;2023-06-26T04:13:42;9.73;;;1.35;;
46210;SDS011;52144;48.040;-1.594;2023-06-26T04:16:09;5.78;;;1.92;;
46210;SDS011;52144;48.040;-1.594;2023-06-26T04:18:39;5.93;;;2.35;;
46210;SDS011;52144;48.040;-1.594;2023-06-26T04:21:07;7.65;;;2.15;;
46210;SDS011;52144;48.040;-1.594;2023-06-26T04:23:37;6.25;;;2.05;;
46210;SDS011;52144;48.040;-1.594;2023-06-26T04:26:06;5.68;;;2.42;;
46210;SDS011;52144;48.040;-1.594;2023-06-26T04:28:35;2.70;;;1.60;;
46210;SDS011;52144;48.040;-1.594;2023-06-26T04:31:03;7.35;;;1.50;;
46210;SDS011;52144;48.040;-1.594;2023-06-26T04:33:31;1.83;;;1.73;;
46210;SDS011;52144;48.040;-1.594;2023-06-26T04:36:00;4.07;;;1.90;;
46210;SDS011;52144;48.040;-1.594;2023-06-26T04:38:30;4.00;;;2.03;;
46210;SDS011;52144;48.040;-1.594;2023-06-26T04:40:58;3.05;;;1.90;;
46210;SDS011;52144;48.040;-1.594;2023-06-26T04:43:26;9.73;;;1.95;;
46210;SDS011;52144;48.040;-1.594;2023-06-26T04:45:54;3.58;;;2.40;;
46210;SDS011;52144;48.040;-1.594;2023-06-26T04:48:21;3.03;;;2.00;;
46210;SDS011;52144;48.040;-1.594;2023-06-26T04:50:49;2.75;;;2.03;;
46210;SDS011;52144;48.040;-1.594;2023-06-26T04:53:22;4.25;;;2.72;;
46210;SDS011;52144;48.040;-1.594;2023-06-26T04:55:50;4.55;;;2.53;;
46210;SDS011;52144;48.040;-1.594;2023-06-26T04:58:18;4.15;;;2.63;;
46210;SDS011;52144;48.040;-1.594;2023-06-26T05:00:47;2.60;;;1.88;;
46210;SDS011;52144;48.040;-1.594;2023-06-26T05:03:16;3.88;;;2.00;;
46210;SDS011;52144;48.040;-1.594;2023-06-26T05:05:45;2.95;;;2.28;;
46210;SDS011;52144;48.040;-1.594;2023-06-26T05:08:13;12.20;;;3.15;;
46210;SDS011;52144;48.040;-1.594;2023-06-26T05:10:43;3.42;;;1.88;;
46210;SDS011;52144;48.040;-1.594;2023-06-26T05:13:12;8.80;;;2.92;;
46210;SDS011;52144;48.040;-1.594;2023-06-26T05:15:41;4.15;;;2.72;;
46210;SDS011;52144;48.040;-1.594;2023-06-26T05:18:09;5.72;;;2.00;;
46210;SDS011;52144;48.040;-1.594;2023-06-26T05:20:37;7.63;;;2.85;;
46210;SDS011;52144;48.040;-1.594;2023-06-26T05:23:06;4.47;;;1.95;;
46210;SDS011;52144;48.040;-1.594;2023-06-26T05:25:34;7.93;;;2.13;;
46210;SDS011;52144;48.040;-1.594;2023-06-26T05:28:04;2.95;;;2.00;;
46210;SDS011;52144;48.040;-1.594;2023-06-26T05:30:35;1.98;;;1.45;;
46210;SDS011;52144;48.040;-1.594;2023-06-26T05:33:03;4.82;;;1.50;;
46210;SDS011;52144;48.040;-1.594;2023-06-26T05:35:32;4.95;;;1.50;;
46210;SDS011;52144;48.040;-1.594;2023-06-26T05:38:01;8.45;;;2.53;;
46210;SDS011;52144;48.040;-1.594;2023-06-26T05:40:29;6.70;;;2.17;;
46210;SDS011;52144;48.040;-1.594;2023-06-26T05:42:57;4.28;;;1.83;;
46210;SDS011;52144;48.040;-1.594;2023-06-26T05:45:27;4.80;;;1.73;;
46210;SDS011;52144;48.040;-1.594;2023-06-26T05:47:55;2.85;;;2.20;;
46210;SDS011;52144;48.040;-1.594;2023-06-26T05:50:23;3.85;;;1.90;;
46210;SDS011;52144;48.040;-1.594;2023-06-26T05:52:52;5.18;;;2.10;;
46210;SDS011;52144;48.040;-1.594;2023-06-26T05:55:20;11.25;;;2.50;;
46210;SDS011;52144;48.040;-1.594;2023-06-26T05:57:50;12.02;;;2.88;;
46210;SDS011;52144;48.040;-1.594;2023-06-26T06:00:20;3.50;;;2.10;;
46210;SDS011;52144;48.040;-1.594;2023-06-26T06:02:49;3.08;;;2.40;;
46210;SDS011;52144;48.040;-1.594;2023-06-26T06:05:20;4.80;;;1.83;;
46210;SDS011;52144;48.040;-1.594;2023-06-26T06:07:49;5.50;;;2.60;;
46210;SDS011;52144;48.040;-1.594;2023-06-26T06:10:18;1.40;;;1.30;;
46210;SDS011;52144;48.040;-1.594;2023-06-26T06:12:46;8.10;;;2.65;;
46210;SDS011;52144;48.040;-1.594;2023-06-26T06:15:13;6.32;;;2.50;;
46210;SDS011;52144;48.040;-1.594;2023-06-26T06:17:41;4.55;;;2.35;;
46210;SDS011;52144;48.040;-1.594;2023-06-26T06:20:11;8.98;;;1.90;;
46210;SDS011;52144;48.040;-1.594;2023-06-26T06:22:39;3.13;;;1.65;;
46210;SDS011;52144;48.040;-1.594;2023-06-26T06:25:07;10.23;;;1.75;;
46210;SDS011;52144;48.040;-1.594;2023-06-26T06:27:35;4.95;;;2.03;;
46210;SDS011;52144;48.040;-1.594;2023-06-26T06:30:03;6.43;;;2.47;;
46210;SDS011;52144;48.040;-1.594;2023-06-26T06:32:34;8.88;;;1.90;;
46210;SDS011;52144;48.040;-1.594;2023-06-26T06:35:02;4.15;;;1.40;;
46210;SDS011;52144;48.040;-1.594;2023-06-26T06:37:37;5.95;;;1.65;;
46210;SDS011;52144;48.040;-1.594;2023-06-26T06:40:06;5.20;;;1.88;;
46210;SDS011;52144;48.040;-1.594;2023-06-26T06:42:37;3.55;;;1.95;;
46210;SDS011;52144;48.040;-1.594;2023-06-26T06:45:05;3.92;;;1.52;;
46210;SDS011;52144;48.040;-1.594;2023-06-26T06:47:33;11.45;;;2.00;;
46210;SDS011;52144;48.040;-1.594;2023-06-26T06:50:01;10.27;;;1.85;;
46210;SDS011;52144;48.040;-1.594;2023-06-26T06:55:04;3.03;;;1.65;;
46210;SDS011;52144;48.040;-1.594;2023-06-26T06:57:35;4.73;;;2.00;;
46210;SDS011;52144;48.040;-1.594;2023-06-26T07:00:05;8.27;;;1.83;;
46210;SDS011;52144;48.040;-1.594;2023-06-26T07:02:35;4.43;;;1.77;;
46210;SDS011;52144;48.040;-1.594;2023-06-26T07:05:03;3.15;;;1.20;;
46210;SDS011;52144;48.040;-1.594;2023-06-26T07:07:32;7.38;;;1.58;;
46210;SDS011;52144;48.040;-1.594;2023-06-26T07:10:01;3.75;;;1.35;;
46210;SDS011;52144;48.040;-1.594;2023-06-26T07:12:32;4.80;;;1.52;;
46210;SDS011;52144;48.040;-1.594;2023-06-26T07:15:00;5.50;;;1.52;;
46210;SDS011;52144;48.040;-1.594;2023-06-26T07:17:29;4.82;;;1.42;;
46210;SDS011;52144;48.040;-1.594;2023-06-26T07:19:57;1.55;;;0.90;;
46210;SDS011;52144;48.040;-1.594;2023-06-26T07:22:24;3.80;;;1.45;;
46210;SDS011;52144;48.040;-1.594;2023-06-26T07:24:52;5.05;;;1.70;;
46210;SDS011;52144;48.040;-1.594;2023-06-26T07:27:20;8.52;;;1.42;;
46210;SDS011;52144;48.040;-1.594;2023-06-26T07:29:50;4.50;;;1.67;;
46210;SDS011;52144;48.040;-1.594;2023-06-26T07:32:17;5.28;;;1.67;;
46210;SDS011;52144;48.040;-1.594;2023-06-26T07:34:45;6.43;;;1.55;;
46210;SDS011;52144;48.040;-1.594;2023-06-26T07:37:13;4.88;;;1.35;;
46210;SDS011;52144;48.040;-1.594;2023-06-26T07:39:41;2.90;;;1.20;;
46210;SDS011;52144;48.040;-1.594;2023-06-26T07:42:09;8.73;;;1.33;;
46210;SDS011;52144;48.040;-1.594;2023-06-26T07:44:36;4.38;;;1.40;;
46210;SDS011;52144;48.040;-1.594;2023-06-26T07:47:06;5.40;;;1.38;;
46210;SDS011;52144;48.040;-1.594;2023-06-26T07:49:33;5.78;;;1.48;;
46210;SDS011;52144;48.040;-1.594;2023-06-26T07:52:01;1.42;;;0.90;;
46210;SDS011;52144;48.040;-1.594;2023-06-26T07:54:31;1.30;;;0.70;;
46210;SDS011;52144;48.040;-1.594;2023-06-26T07:56:59;2.50;;;1.20;;
46210;SDS011;52144;48.040;-1.594;2023-06-26T07:59:29;5.70;;;1.80;;
46210;SDS011;52144;48.040;-1.594;2023-06-26T08:01:57;3.53;;;1.15;;
46210;SDS011;52144;48.040;-1.594;2023-06-26T08:04:27;3.17;;;1.00;;
46210;SDS011;52144;48.040;-1.594;2023-06-26T08:06:57;4.57;;;1.33;;
46210;SDS011;52144;48.040;-1.594;2023-06-26T08:09:26;3.85;;;1.85;;
46210;SDS011;52144;48.040;-1.594;2023-06-26T08:11:55;4.07;;;1.05;;
46210;SDS011;52144;48.040;-1.594;2023-06-26T08:14:23;5.35;;;1.15;;
46210;SDS011;52144;48.040;-1.594;2023-06-26T08:16:51;5.53;;;1.67;;
46210;SDS011;52144;48.040;-1.594;2023-06-26T08:19:19;4.22;;;1.13;;
46210;SDS011;52144;48.040;-1.594;2023-06-26T08:21:48;2.05;;;0.93;;
46210;SDS011;52144;48.040;-1.594;2023-06-26T08:24:16;2.22;;;1.00;;
46210;SDS011;52144;48.040;-1.594;2023-06-26T08:26:45;3.60;;;0.80;;
46210;SDS011;52144;48.040;-1.594;2023-06-26T08:29:13;3.17;;;1.75;;
46210;SDS011;52144;48.040;-1.594;2023-06-26T08:31:42;5.47;;;1.17;;
46210;SDS011;52144;48.040;-1.594;2023-06-26T08:34:10;2.60;;;1.45;;
46210;SDS011;52144;48.040;-1.594;2023-06-26T08:36:38;3.30;;;1.27;;
46210;SDS011;52144;48.040;-1.594;2023-06-26T08:39:07;5.78;;;1.45;;
46210;SDS011;52144;48.040;-1.594;2023-06-26T08:41:35;6.13;;;1.17;;
46210;SDS011;52144;48.040;-1.594;2023-06-26T08:44:03;1.65;;;0.82;;
46210;SDS011;52144;48.040;-1.594;2023-06-26T08:46:32;4.50;;;0.95;;
46210;SDS011;52144;48.040;-1.594;2023-06-26T08:49:02;3.80;;;0.88;;
46210;SDS011;52144;48.040;-1.594;2023-06-26T08:51:35;5.43;;;1.30;;
46210;SDS011;52144;48.040;-1.594;2023-06-26T08:54:09;4.28;;;1.13;;
46210;SDS011;52144;48.040;-1.594;2023-06-26T08:56:44;2.72;;;0.80;;
46210;SDS011;52144;48.040;-1.594;2023-06-26T08:59:13;3.33;;;0.80;;
46210;SDS011;52144;48.040;-1.594;2023-06-26T09:01:42;1.23;;;0.88;;
46210;SDS011;52144;48.040;-1.594;2023-06-26T09:04:10;0.95;;;0.73;;
46210;SDS011;52144;48.040;-1.594;2023-06-26T09:06:38;2.75;;;1.20;;
46210;SDS011;52144;48.040;-1.594;2023-06-26T09:09:06;2.70;;;1.30;;
46210;SDS011;52144;48.040;-1.594;2023-06-26T09:11:36;4.25;;;1.00;;
46210;SDS011;52144;48.040;-1.594;2023-06-26T09:14:04;4.32;;;1.05;;
46210;SDS011;52144;48.040;-1.594;2023-06-26T09:16:38;3.78;;;0.98;;
46210;SDS011;52144;48.040;-1.594;2023-06-26T09:19:08;3.72;;;1.00;;
46210;SDS011;52144;48.040;-1.594;2023-06-26T09:21:38;4.43;;;1.25;;
46210;SDS011;52144;48.040;-1.594;2023-06-26T09:24:07;4.18;;;1.50;;
46210;SDS011;52144;48.040;-1.594;2023-06-26T09:26:37;8.45;;;1.20;;
46210;SDS011;52144;48.040;-1.594;2023-06-26T09:29:08;2.88;;;1.15;;
46210;SDS011;52144;48.040;-1.594;2023-06-26T09:31:36;2.97;;;1.00;;
46210;SDS011;52144;48.040;-1.594;2023-06-26T09:34:08;2.42;;;0.80;;
46210;SDS011;52144;48.040;-1.594;2023-06-26T09:36:36;5.65;;;1.20;;
46210;SDS011;52144;48.040;-1.594;2023-06-26T09:39:06;3.15;;;1.88;;
46210;SDS011;52144;48.040;-1.594;2023-06-26T09:41:41;5.57;;;1.35;;
46210;SDS011;52144;48.040;-1.594;2023-06-26T09:44:10;3.80;;;1.15;;
46210;SDS011;52144;48.040;-1.594;2023-06-26T09:46:39;1.40;;;1.20;;
46210;SDS011;52144;48.040;-1.594;2023-06-26T09:49:07;4.82;;;1.65;;
46210;SDS011;52144;48.040;-1.594;2023-06-26T09:51:37;8.20;;;2.08;;
46210;SDS011;52144;48.040;-1.594;2023-06-26T09:54:06;1.95;;;1.30;;
46210;SDS011;52144;48.040;-1.594;2023-06-26T09:56:35;3.08;;;1.52;;
46210;SDS011;52144;48.040;-1.594;2023-06-26T09:59:05;3.63;;;1.23;;
46210;SDS011;52144;48.040;-1.594;2023-06-26T10:01:33;4.05;;;1.25;;
46210;SDS011;52144;48.040;-1.594;2023-06-26T10:04:04;2.13;;;1.02;;
46210;SDS011;52144;48.040;-1.594;2023-06-26T10:06:33;7.45;;;1.10;;
46210;SDS011;52144;48.040;-1.594;2023-06-26T10:09:03;3.63;;;0.90;;
46210;SDS011;52144;48.040;-1.594;2023-06-26T10:11:33;3.10;;;0.70;;
46210;SDS011;52144;48.040;-1.594;2023-06-26T10:14:05;2.60;;;0.93;;
46210;SDS011;52144;48.040;-1.594;2023-06-26T10:16:44;2.53;;;0.98;;
46210;SDS011;52144;48.040;-1.594;2023-06-26T10:19:13;0.77;;;0.70;;
46210;SDS011;52144;48.040;-1.594;2023-06-26T10:21:45;3.17;;;0.70;;
46210;SDS011;52144;48.040;-1.594;2023-06-26T10:24:14;1.52;;;1.08;;
46210;SDS011;52144;48.040;-1.594;2023-06-26T10:26:42;3.45;;;1.30;;
46210;SDS011;52144;48.040;-1.594;2023-06-26T10:29:14;2.25;;;0.82;;
46210;SDS011;52144;48.040;-1.594;2023-06-26T10:31:44;2.20;;;1.00;;
46210;SDS011;52144;48.040;-1.594;2023-06-26T10:34:17;3.22;;;1.58;;
46210;SDS011;52144;48.040;-1.594;2023-06-26T10:36:45;3.05;;;1.20;;
46210;SDS011;52144;48.040;-1.594;2023-06-26T10:39:17;3.72;;;1.85;;
46210;SDS011;52144;48.040;-1.594;2023-06-26T10:41:45;5.35;;;1.20;;
46210;SDS011;52144;48.040;-1.594;2023-06-26T10:44:34;2.80;;;1.27;;
46210;SDS011;52144;48.040;-1.594;2023-06-26T10:47:08;5.45;;;1.08;;
46210;SDS011;52144;48.040;-1.594;2023-06-26T10:49:40;3.30;;;1.30;;
46210;SDS011;52144;48.040;-1.594;2023-06-26T10:52:35;2.58;;;1.17;;
46210;SDS011;52144;48.040;-1.594;2023-06-26T10:57:32;4.85;;;1.48;;
46210;SDS011;52144;48.040;-1.594;2023-06-26T11:00:10;4.45;;;1.10;;
46210;SDS011;52144;48.040;-1.594;2023-06-26T11:02:47;2.67;;;1.27;;
46210;SDS011;52144;48.040;-1.594;2023-06-26T11:05:25;1.70;;;0.73;;
46210;SDS011;52144;48.040;-1.594;2023-06-26T11:08:04;5.88;;;1.00;;
46210;SDS011;52144;48.040;-1.594;2023-06-26T11:13:27;5.68;;;0.98;;
46210;SDS011;52144;48.040;-1.594;2023-06-26T11:15:58;5.15;;;1.17;;
46210;SDS011;52144;48.040;-1.594;2023-06-26T11:18:26;5.30;;;1.58;;
46210;SDS011;52144;48.040;-1.594;2023-06-26T11:20:54;1.27;;;0.80;;
46210;SDS011;52144;48.040;-1.594;2023-06-26T11:23:22;6.28;;;1.05;;
46210;SDS011;52144;48.040;-1.594;2023-06-26T11:25:52;4.88;;;1.33;;
46210;SDS011;52144;48.040;-1.594;2023-06-26T11:28:20;1.00;;;0.68;;
46210;SDS011;52144;48.040;-1.594;2023-06-26T11:30:48;1.55;;;1.27;;
46210;SDS011;52144;48.040;-1.594;2023-06-26T11:33:18;3.05;;;1.15;;
46210;SDS011;52144;48.040;-1.594;2023-06-26T11:35:45;4.13;;;0.75;;
46210;SDS011;52144;48.040;-1.594;2023-06-26T11:38:13;2.22;;;1.05;;
46210;SDS011;52144;48.040;-1.594;2023-06-26T11:40:41;2.45;;;0.90;;
46210;SDS011;52144;48.040;-1.594;2023-06-26T11:43:09;5.47;;;1.50;;
46210;SDS011;52144;48.040;-1.594;2023-06-26T11:45:37;3.80;;;1.00;;
46210;SDS011;52144;48.040;-1.594;2023-06-26T11:48:06;4.32;;;1.60;;
46210;SDS011;52144;48.040;-1.594;2023-06-26T11:50:38;4.25;;;1.33;;
46210;SDS011;52144;48.040;-1.594;2023-06-26T11:53:06;2.90;;;1.30;;
46210;SDS011;52144;48.040;-1.594;2023-06-26T11:55:40;2.80;;;1.00;;
46210;SDS011;52144;48.040;-1.594;2023-06-26T11:58:08;2.50;;;1.08;;
46210;SDS011;52144;48.040;-1.594;2023-06-26T12:00:40;3.63;;;0.90;;
46210;SDS011;52144;48.040;-1.594;2023-06-26T12:03:08;1.00;;;0.90;;
46210;SDS011;52144;48.040;-1.594;2023-06-26T12:05:38;2.92;;;1.35;;
46210;SDS011;52144;48.040;-1.594;2023-06-26T12:08:07;0.88;;;0.88;;
46210;SDS011;52144;48.040;-1.594;2023-06-26T12:10:35;2.13;;;1.30;;
46210;SDS011;52144;48.040;-1.594;2023-06-26T12:13:04;6.65;;;1.20;;
46210;SDS011;52144;48.040;-1.594;2023-06-26T12:15:32;4.30;;;1.33;;
46210;SDS011;52144;48.040;-1.594;2023-06-26T12:18:00;4.88;;;1.63;;
46210;SDS011;52144;48.040;-1.594;2023-06-26T12:20:39;4.50;;;1.25;;
46210;SDS011;52144;48.040;-1.594;2023-06-26T12:23:11;3.97;;;1.10;;
46210;SDS011;52144;48.040;-1.594;2023-06-26T12:25:40;3.40;;;1.17;;
46210;SDS011;52144;48.040;-1.594;2023-06-26T12:28:15;3.78;;;0.80;;
46210;SDS011;52144;48.040;-1.594;2023-06-26T12:30:47;7.00;;;1.25;;
46210;SDS011;52144;48.040;-1.594;2023-06-26T12:33:15;4.10;;;1.20;;
46210;SDS011;52144;48.040;-1.594;2023-06-26T12:35:44;3.88;;;1.10;;
46210;SDS011;52144;48.040;-1.594;2023-06-26T12:38:12;2.03;;;1.10;;
46210;SDS011;52144;48.040;-1.594;2023-06-26T12:40:46;9.70;;;1.17;;
46210;SDS011;52144;48.040;-1.594;2023-06-26T12:43:22;3.03;;;1.20;;
46210;SDS011;52144;48.040;-1.594;2023-06-26T12:45:53;1.58;;;1.23;;
46210;SDS011;52144;48.040;-1.594;2023-06-26T12:48:35;1.50;;;0.93;;
46210;SDS011;52144;48.040;-1.594;2023-06-26T12:51:09;2.30;;;0.93;;
46210;SDS011;52144;48.040;-1.594;2023-06-26T12:53:37;1.80;;;1.00;;
46210;SDS011;52144;48.040;-1.594;2023-06-26T12:56:07;2.40;;;0.90;;
46210;SDS011;52144;48.040;-1.594;2023-06-26T12:58:35;3.35;;;1.00;;
46210;SDS011;52144;48.040;-1.594;2023-06-26T13:01:05;4.85;;;1.48;;
46210;SDS011;52144;48.040;-1.594;2023-06-26T13:03:37;4.07;;;1.13;;
46210;SDS011;52144;48.040;-1.594;2023-06-26T13:06:05;11.82;;;1.70;;
46210;SDS011;52144;48.040;-1.594;2023-06-26T13:08:34;2.28;;;1.00;;
46210;SDS011;52144;48.040;-1.594;2023-06-26T13:11:02;2.33;;;0.90;;
46210;SDS011;52144;48.040;-1.594;2023-06-26T13:13:30;2.60;;;1.45;;
46210;SDS011;52144;48.040;-1.594;2023-06-26T13:15:58;1.67;;;0.90;;
46210;SDS011;52144;48.040;-1.594;2023-06-26T13:18:25;2.13;;;0.98;;
46210;SDS011;52144;48.040;-1.594;2023-06-26T13:20:53;3.80;;;0.93;;
46210;SDS011;52144;48.040;-1.594;2023-06-26T13:23:21;2.28;;;1.05;;
46210;SDS011;52144;48.040;-1.594;2023-06-26T13:25:51;1.38;;;0.68;;
46210;SDS011;52144;48.040;-1.594;2023-06-26T13:28:19;2.05;;;0.98;;
46210;SDS011;52144;48.040;-1.594;2023-06-26T13:30:47;2.60;;;0.95;;
46210;SDS011;52144;48.040;-1.594;2023-06-26T13:33:15;2.75;;;1.10;;
46210;SDS011;52144;48.040;-1.594;2023-06-26T13:35:43;2.67;;;0.88;;
46210;SDS011;52144;48.040;-1.594;2023-06-26T13:38:11;4.00;;;0.90;;
46210;SDS011;52144;48.040;-1.594;2023-06-26T13:40:39;1.10;;;1.00;;
46210;SDS011;52144;48.040;-1.594;2023-06-26T13:43:08;1.98;;;1.23;;
46210;SDS011;52144;48.040;-1.594;2023-06-26T13:45:36;1.05;;;0.77;;
46210;SDS011;52144;48.040;-1.594;2023-06-26T13:48:04;2.33;;;0.80;;
46210;SDS011;52144;48.040;-1.594;2023-06-26T13:50:32;5.07;;;1.00;;
46210;SDS011;52144;48.040;-1.594;2023-06-26T13:53:18;1.88;;;1.20;;
46210;SDS011;52144;48.040;-1.594;2023-06-26T13:55:46;5.75;;;1.00;;
46210;SDS011;52144;48.040;-1.594;2023-06-26T13:58:15;4.75;;;1.15;;
46210;SDS011;52144;48.040;-1.594;2023-06-26T14:00:43;1.70;;;0.75;;
46210;SDS011;52144;48.040;-1.594;2023-06-26T14:03:14;3.40;;;0.90;;
46210;SDS011;52144;48.040;-1.594;2023-06-26T14:05:44;6.50;;;1.10;;
46210;SDS011;52144;48.040;-1.594;2023-06-26T14:08:12;2.88;;;0.75;;
46210;SDS011;52144;48.040;-1.594;2023-06-26T14:10:40;2.33;;;1.25;;
46210;SDS011;52144;48.040;-1.594;2023-06-26T14:13:09;1.00;;;0.70;;
46210;SDS011;52144;48.040;-1.594;2023-06-26T14:15:39;4.43;;;1.30;;
46210;SDS011;52144;48.040;-1.594;2023-06-26T14:18:07;3.90;;;1.20;;
46210;SDS011;52144;48.040;-1.594;2023-06-26T14:20:35;3.80;;;0.88;;
46210;SDS011;52144;48.040;-1.594;2023-06-26T14:23:03;7.38;;;1.08;;
46210;SDS011;52144;48.040;-1.594;2023-06-26T14:25:31;2.35;;;1.02;;
46210;SDS011;52144;48.040;-1.594;2023-06-26T14:27:59;1.95;;;0.77;;
46210;SDS011;52144;48.040;-1.594;2023-06-26T14:30:27;1.55;;;0.82;;
46210;SDS011;52144;48.040;-1.594;2023-06-26T14:32:56;3.88;;;0.90;;
46210;SDS011;52144;48.040;-1.594;2023-06-26T14:35:24;6.20;;;0.90;;
46210;SDS011;52144;48.040;-1.594;2023-06-26T14:37:52;5.10;;;0.95;;
46210;SDS011;52144;48.040;-1.594;2023-06-26T14:40:19;2.83;;;1.50;;
46210;SDS011;52144;48.040;-1.594;2023-06-26T14:42:48;6.43;;;1.05;;
46210;SDS011;52144;48.040;-1.594;2023-06-26T14:45:16;3.55;;;1.20;;
46210;SDS011;52144;48.040;-1.594;2023-06-26T14:47:44;8.13;;;1.33;;
46210;SDS011;52144;48.040;-1.594;2023-06-26T14:50:13;1.80;;;0.85;;
46210;SDS011;52144;48.040;-1.594;2023-06-26T14:52:41;3.42;;;0.90;;